sensor_id;sensor_type;location;lat;lon;timestamp;temperature;humidity
10263;DHT22;5177;50.068;8.156;2022-11-23T00:02:14;6.80;99.90
10263;DHT22;5177;50.068;8.156;2022-11-23T00:04:39;6.80;99.90
10263;DHT22;5177;50.068;8.156;2022-11-23T00:07:05;6.90;99.90
10263;DHT22;5177;50.068;8.156;2022-11-23T00:09:30;6.80;99.90
10263;DHT22;5177;50.068;8.156;2022-11-23T00:11:56;6.80;99.90
10263;DHT22;5177;50.068;8.156;2022-11-23T00:14:21;6.80;99.90
10263;DHT22;5177;50.068;8.156;2022-11-23T00:16:47;6.90;99.90
10263;DHT22;5177;50.068;8.156;2022-11-23T00:19:12;6.90;99.90
10263;DHT22;5177;50.068;8.156;2022-11-23T00:21:38;6.90;99.90
10263;DHT22;5177;50.068;8.156;2022-11-23T00:24:03;7.00;99.90
10263;DHT22;5177;50.068;8.156;2022-11-23T00:26:29;7.00;99.90
10263;DHT22;5177;50.068;8.156;2022-11-23T00:28:54;7.00;99.90
10263;DHT22;5177;50.068;8.156;2022-11-23T00:34:23;7.00;99.90
10263;DHT22;5177;50.068;8.156;2022-11-23T00:36:49;6.90;99.90
10263;DHT22;5177;50.068;8.156;2022-11-23T00:39:15;6.90;99.90
10263;DHT22;5177;50.068;8.156;2022-11-23T00:41:41;6.90;99.90
10263;DHT22;5177;50.068;8.156;2022-11-23T00:44:06;6.90;99.90
10263;DHT22;5177;50.068;8.156;2022-11-23T00:46:32;6.90;99.90
10263;DHT22;5177;50.068;8.156;2022-11-23T00:48:57;7.00;99.90
10263;DHT22;5177;50.068;8.156;2022-11-23T00:51:24;7.00;99.90
10263;DHT22;5177;50.068;8.156;2022-11-23T00:53:50;6.90;99.90
10263;DHT22;5177;50.068;8.156;2022-11-23T00:56:16;6.90;99.90
10263;DHT22;5177;50.068;8.156;2022-11-23T00:58:46;7.00;99.90
10263;DHT22;5177;50.068;8.156;2022-11-23T01:01:12;6.90;99.90
10263;DHT22;5177;50.068;8.156;2022-11-23T01:03:42;7.00;99.90
10263;DHT22;5177;50.068;8.156;2022-11-23T01:06:18;6.90;99.90
10263;DHT22;5177;50.068;8.156;2022-11-23T01:08:47;7.10;99.90
10263;DHT22;5177;50.068;8.156;2022-11-23T01:11:13;7.10;99.90
10263;DHT22;5177;50.068;8.156;2022-11-23T01:13:39;7.20;99.90
10263;DHT22;5177;50.068;8.156;2022-11-23T01:19:00;7.20;99.90
10263;DHT22;5177;50.068;8.156;2022-11-23T01:21:27;7.20;99.90
10263;DHT22;5177;50.068;8.156;2022-11-23T01:23:52;7.20;99.90
10263;DHT22;5177;50.068;8.156;2022-11-23T01:26:18;7.30;99.90
10263;DHT22;5177;50.068;8.156;2022-11-23T01:28:44;7.30;99.90
10263;DHT22;5177;50.068;8.156;2022-11-23T01:31:13;7.30;99.90
10263;DHT22;5177;50.068;8.156;2022-11-23T01:33:39;7.30;99.90
10263;DHT22;5177;50.068;8.156;2022-11-23T01:36:09;7.30;99.90
10263;DHT22;5177;50.068;8.156;2022-11-23T01:38:34;7.30;99.90
10263;DHT22;5177;50.068;8.156;2022-11-23T01:41:00;7.30;99.90
10263;DHT22;5177;50.068;8.156;2022-11-23T01:43:25;7.30;99.90
10263;DHT22;5177;50.068;8.156;2022-11-23T01:48:20;7.30;99.90
10263;DHT22;5177;50.068;8.156;2022-11-23T01:50:48;7.30;99.90
10263;DHT22;5177;50.068;8.156;2022-11-23T01:53:14;7.40;99.90
10263;DHT22;5177;50.068;8.156;2022-11-23T01:55:40;7.40;99.90
10263;DHT22;5177;50.068;8.156;2022-11-23T01:58:06;7.40;99.90
10263;DHT22;5177;50.068;8.156;2022-11-23T02:00:32;7.40;99.90
10263;DHT22;5177;50.068;8.156;2022-11-23T02:02:58;7.40;99.90
10263;DHT22;5177;50.068;8.156;2022-11-23T02:05:32;7.40;99.90
10263;DHT22;5177;50.068;8.156;2022-11-23T02:07:59;7.40;99.90
10263;DHT22;5177;50.068;8.156;2022-11-23T02:10:25;7.40;99.90
10263;DHT22;5177;50.068;8.156;2022-11-23T02:12:51;7.50;99.90
10263;DHT22;5177;50.068;8.156;2022-11-23T02:15:17;7.50;99.90
10263;DHT22;5177;50.068;8.156;2022-11-23T02:20:45;7.40;99.90
10263;DHT22;5177;50.068;8.156;2022-11-23T02:26:28;7.50;99.90
10263;DHT22;5177;50.068;8.156;2022-11-23T02:29:47;7.50;99.90
10263;DHT22;5177;50.068;8.156;2022-11-23T02:31:41;7.50;99.90
10263;DHT22;5177;50.068;8.156;2022-11-23T02:34:06;7.50;99.90
10263;DHT22;5177;50.068;8.156;2022-11-23T02:39:05;7.50;99.90
10263;DHT22;5177;50.068;8.156;2022-11-23T02:41:35;7.50;99.90
10263;DHT22;5177;50.068;8.156;2022-11-23T02:44:01;7.40;99.90
10263;DHT22;5177;50.068;8.156;2022-11-23T02:46:28;7.50;99.90
10263;DHT22;5177;50.068;8.156;2022-11-23T02:48:53;7.50;99.90
10263;DHT22;5177;50.068;8.156;2022-11-23T02:51:19;7.40;99.90
10263;DHT22;5177;50.068;8.156;2022-11-23T02:53:44;7.40;99.90
10263;DHT22;5177;50.068;8.156;2022-11-23T02:56:10;7.50;99.90
10263;DHT22;5177;50.068;8.156;2022-11-23T02:58:35;7.50;99.90
10263;DHT22;5177;50.068;8.156;2022-11-23T03:01:01;7.50;99.90
10263;DHT22;5177;50.068;8.156;2022-11-23T03:03:26;7.50;99.90
10263;DHT22;5177;50.068;8.156;2022-11-23T03:05:52;7.50;99.90
10263;DHT22;5177;50.068;8.156;2022-11-23T03:08:17;7.40;99.90
10263;DHT22;5177;50.068;8.156;2022-11-23T03:10:43;7.40;99.90
10263;DHT22;5177;50.068;8.156;2022-11-23T03:13:08;7.40;99.90
10263;DHT22;5177;50.068;8.156;2022-11-23T03:15:34;7.40;99.90
10263;DHT22;5177;50.068;8.156;2022-11-23T03:17:59;7.40;99.90
10263;DHT22;5177;50.068;8.156;2022-11-23T03:20:25;7.40;99.90
10263;DHT22;5177;50.068;8.156;2022-11-23T03:22:50;7.30;99.90
10263;DHT22;5177;50.068;8.156;2022-11-23T03:25:16;7.40;99.90
10263;DHT22;5177;50.068;8.156;2022-11-23T03:27:41;7.40;99.90
10263;DHT22;5177;50.068;8.156;2022-11-23T03:30:07;7.40;99.90
10263;DHT22;5177;50.068;8.156;2022-11-23T03:32:33;7.40;99.90
10263;DHT22;5177;50.068;8.156;2022-11-23T03:34:58;7.30;99.90
10263;DHT22;5177;50.068;8.156;2022-11-23T03:37:24;7.30;99.90
10263;DHT22;5177;50.068;8.156;2022-11-23T03:39:50;7.30;99.90
10263;DHT22;5177;50.068;8.156;2022-11-23T03:42:16;7.30;99.90
10263;DHT22;5177;50.068;8.156;2022-11-23T03:44:41;7.40;99.90
10263;DHT22;5177;50.068;8.156;2022-11-23T03:47:06;7.30;99.90
10263;DHT22;5177;50.068;8.156;2022-11-23T03:49:32;7.30;99.90
10263;DHT22;5177;50.068;8.156;2022-11-23T03:51:57;7.40;99.90
10263;DHT22;5177;50.068;8.156;2022-11-23T03:54:23;7.40;99.90
10263;DHT22;5177;50.068;8.156;2022-11-23T03:56:48;7.40;99.90
10263;DHT22;5177;50.068;8.156;2022-11-23T03:59:14;7.40;99.90
10263;DHT22;5177;50.068;8.156;2022-11-23T04:01:39;7.30;99.90
10263;DHT22;5177;50.068;8.156;2022-11-23T04:04:05;7.40;99.90
10263;DHT22;5177;50.068;8.156;2022-11-23T04:06:30;7.40;99.90
10263;DHT22;5177;50.068;8.156;2022-11-23T04:08:56;7.40;99.90
10263;DHT22;5177;50.068;8.156;2022-11-23T04:11:21;7.40;99.90
10263;DHT22;5177;50.068;8.156;2022-11-23T04:13:47;7.30;99.90
10263;DHT22;5177;50.068;8.156;2022-11-23T04:16:12;7.30;99.90
10263;DHT22;5177;50.068;8.156;2022-11-23T04:18:38;7.30;99.90
10263;DHT22;5177;50.068;8.156;2022-11-23T04:21:03;7.30;99.90
10263;DHT22;5177;50.068;8.156;2022-11-23T04:23:29;7.30;99.90
10263;DHT22;5177;50.068;8.156;2022-11-23T04:25:54;7.30;99.90
10263;DHT22;5177;50.068;8.156;2022-11-23T04:28:20;7.30;99.90
10263;DHT22;5177;50.068;8.156;2022-11-23T04:30:45;7.30;99.90
10263;DHT22;5177;50.068;8.156;2022-11-23T04:33:11;7.30;99.90
10263;DHT22;5177;50.068;8.156;2022-11-23T04:35:36;7.30;99.90
10263;DHT22;5177;50.068;8.156;2022-11-23T04:38:02;7.30;99.90
10263;DHT22;5177;50.068;8.156;2022-11-23T04:40:27;7.40;99.90
10263;DHT22;5177;50.068;8.156;2022-11-23T04:42:53;7.40;99.90
10263;DHT22;5177;50.068;8.156;2022-11-23T04:45:19;7.40;99.90
10263;DHT22;5177;50.068;8.156;2022-11-23T04:47:44;7.40;99.90
10263;DHT22;5177;50.068;8.156;2022-11-23T04:50:10;7.40;99.90
10263;DHT22;5177;50.068;8.156;2022-11-23T04:52:35;7.40;99.90
10263;DHT22;5177;50.068;8.156;2022-11-23T04:55:01;7.40;99.90
10263;DHT22;5177;50.068;8.156;2022-11-23T04:57:26;7.40;99.90
10263;DHT22;5177;50.068;8.156;2022-11-23T04:59:51;7.40;99.90
10263;DHT22;5177;50.068;8.156;2022-11-23T05:02:17;7.50;99.90
10263;DHT22;5177;50.068;8.156;2022-11-23T05:04:42;7.50;99.90
10263;DHT22;5177;50.068;8.156;2022-11-23T05:07:08;7.40;99.90
10263;DHT22;5177;50.068;8.156;2022-11-23T05:09:33;7.40;99.90
10263;DHT22;5177;50.068;8.156;2022-11-23T05:11:59;7.40;99.90
10263;DHT22;5177;50.068;8.156;2022-11-23T05:14:24;7.40;99.90
10263;DHT22;5177;50.068;8.156;2022-11-23T05:16:50;7.40;99.90
10263;DHT22;5177;50.068;8.156;2022-11-23T05:19:15;7.40;99.90
10263;DHT22;5177;50.068;8.156;2022-11-23T05:21:41;7.40;99.90
10263;DHT22;5177;50.068;8.156;2022-11-23T05:24:06;7.40;99.90
10263;DHT22;5177;50.068;8.156;2022-11-23T05:26:32;7.50;99.90
10263;DHT22;5177;50.068;8.156;2022-11-23T05:28:57;7.40;99.90
10263;DHT22;5177;50.068;8.156;2022-11-23T05:31:23;7.40;99.90
10263;DHT22;5177;50.068;8.156;2022-11-23T05:33:48;7.40;99.90
10263;DHT22;5177;50.068;8.156;2022-11-23T05:36:14;7.40;99.90
10263;DHT22;5177;50.068;8.156;2022-11-23T05:38:40;7.30;99.90
10263;DHT22;5177;50.068;8.156;2022-11-23T05:41:06;7.30;99.90
10263;DHT22;5177;50.068;8.156;2022-11-23T05:43:31;7.30;99.90
10263;DHT22;5177;50.068;8.156;2022-11-23T05:45:57;7.30;99.90
10263;DHT22;5177;50.068;8.156;2022-11-23T05:48:23;7.30;99.90
10263;DHT22;5177;50.068;8.156;2022-11-23T05:50:49;7.30;99.90
10263;DHT22;5177;50.068;8.156;2022-11-23T05:53:14;7.20;99.90
10263;DHT22;5177;50.068;8.156;2022-11-23T05:55:40;7.20;99.90
10263;DHT22;5177;50.068;8.156;2022-11-23T05:58:06;7.20;99.90
10263;DHT22;5177;50.068;8.156;2022-11-23T06:00:31;7.20;99.90
10263;DHT22;5177;50.068;8.156;2022-11-23T06:02:58;7.20;99.90
10263;DHT22;5177;50.068;8.156;2022-11-23T06:05:23;7.20;99.90
10263;DHT22;5177;50.068;8.156;2022-11-23T06:07:51;7.20;99.90
10263;DHT22;5177;50.068;8.156;2022-11-23T06:10:16;7.20;99.90
10263;DHT22;5177;50.068;8.156;2022-11-23T06:12:42;7.10;99.90
10263;DHT22;5177;50.068;8.156;2022-11-23T06:15:09;7.20;99.90
10263;DHT22;5177;50.068;8.156;2022-11-23T06:17:35;7.10;99.90
10263;DHT22;5177;50.068;8.156;2022-11-23T06:20:01;7.10;99.90
10263;DHT22;5177;50.068;8.156;2022-11-23T06:22:26;7.20;99.90
10263;DHT22;5177;50.068;8.156;2022-11-23T06:24:52;7.20;99.90
10263;DHT22;5177;50.068;8.156;2022-11-23T06:27:17;7.20;99.90
10263;DHT22;5177;50.068;8.156;2022-11-23T06:29:43;7.20;99.90
10263;DHT22;5177;50.068;8.156;2022-11-23T06:32:08;7.20;99.90
10263;DHT22;5177;50.068;8.156;2022-11-23T06:34:34;7.20;99.90
10263;DHT22;5177;50.068;8.156;2022-11-23T06:36:59;7.20;99.90
10263;DHT22;5177;50.068;8.156;2022-11-23T06:39:25;7.20;99.90
10263;DHT22;5177;50.068;8.156;2022-11-23T06:41:51;7.20;99.90
10263;DHT22;5177;50.068;8.156;2022-11-23T06:44:17;7.30;99.90
10263;DHT22;5177;50.068;8.156;2022-11-23T06:46:42;7.20;99.90
10263;DHT22;5177;50.068;8.156;2022-11-23T06:49:08;7.20;99.90
10263;DHT22;5177;50.068;8.156;2022-11-23T06:51:33;7.10;99.90
10263;DHT22;5177;50.068;8.156;2022-11-23T06:53:59;7.20;99.90
10263;DHT22;5177;50.068;8.156;2022-11-23T06:56:24;7.10;99.90
10263;DHT22;5177;50.068;8.156;2022-11-23T06:58:49;7.20;99.90
10263;DHT22;5177;50.068;8.156;2022-11-23T07:01:15;7.20;99.90
10263;DHT22;5177;50.068;8.156;2022-11-23T07:03:40;7.10;99.90
10263;DHT22;5177;50.068;8.156;2022-11-23T07:06:09;7.10;99.90
10263;DHT22;5177;50.068;8.156;2022-11-23T07:08:35;7.10;99.90
10263;DHT22;5177;50.068;8.156;2022-11-23T07:11:01;7.10;99.90
10263;DHT22;5177;50.068;8.156;2022-11-23T07:13:27;7.10;99.90
10263;DHT22;5177;50.068;8.156;2022-11-23T07:15:52;7.20;99.90
10263;DHT22;5177;50.068;8.156;2022-11-23T07:18:18;7.20;99.90
10263;DHT22;5177;50.068;8.156;2022-11-23T07:20:43;7.20;99.90
10263;DHT22;5177;50.068;8.156;2022-11-23T07:23:09;7.10;99.90
10263;DHT22;5177;50.068;8.156;2022-11-23T07:25:35;7.10;99.90
10263;DHT22;5177;50.068;8.156;2022-11-23T07:28:02;7.10;99.90
10263;DHT22;5177;50.068;8.156;2022-11-23T07:30:28;7.00;99.90
10263;DHT22;5177;50.068;8.156;2022-11-23T07:32:57;7.00;99.90
10263;DHT22;5177;50.068;8.156;2022-11-23T07:35:23;7.10;99.90
10263;DHT22;5177;50.068;8.156;2022-11-23T07:37:48;7.10;99.90
10263;DHT22;5177;50.068;8.156;2022-11-23T07:40:14;7.10;99.90
10263;DHT22;5177;50.068;8.156;2022-11-23T07:42:39;7.20;99.90
10263;DHT22;5177;50.068;8.156;2022-11-23T07:45:06;7.20;99.90
10263;DHT22;5177;50.068;8.156;2022-11-23T07:47:31;7.30;99.90
10263;DHT22;5177;50.068;8.156;2022-11-23T07:49:57;7.40;99.90
10263;DHT22;5177;50.068;8.156;2022-11-23T07:52:22;7.40;99.90
10263;DHT22;5177;50.068;8.156;2022-11-23T07:54:48;7.50;99.90
10263;DHT22;5177;50.068;8.156;2022-11-23T07:57:13;7.40;99.90
10263;DHT22;5177;50.068;8.156;2022-11-23T07:59:39;7.50;99.90
10263;DHT22;5177;50.068;8.156;2022-11-23T08:02:05;7.60;99.90
10263;DHT22;5177;50.068;8.156;2022-11-23T08:04:30;7.60;99.90
10263;DHT22;5177;50.068;8.156;2022-11-23T08:06:56;7.60;99.90
10263;DHT22;5177;50.068;8.156;2022-11-23T08:09:22;7.60;99.90
10263;DHT22;5177;50.068;8.156;2022-11-23T08:11:47;7.70;99.90
10263;DHT22;5177;50.068;8.156;2022-11-23T08:14:13;7.70;99.90
10263;DHT22;5177;50.068;8.156;2022-11-23T08:16:38;7.80;99.90
10263;DHT22;5177;50.068;8.156;2022-11-23T08:19:03;7.80;99.90
10263;DHT22;5177;50.068;8.156;2022-11-23T08:21:29;7.90;99.90
10263;DHT22;5177;50.068;8.156;2022-11-23T08:23:54;8.10;99.90
10263;DHT22;5177;50.068;8.156;2022-11-23T08:26:20;8.20;99.90
10263;DHT22;5177;50.068;8.156;2022-11-23T08:28:45;8.40;99.90
10263;DHT22;5177;50.068;8.156;2022-11-23T08:31:11;8.70;99.90
10263;DHT22;5177;50.068;8.156;2022-11-23T08:33:38;8.80;99.90
10263;DHT22;5177;50.068;8.156;2022-11-23T08:36:04;9.00;99.90
10263;DHT22;5177;50.068;8.156;2022-11-23T08:38:31;9.20;99.90
10263;DHT22;5177;50.068;8.156;2022-11-23T08:40:57;9.30;99.90
10263;DHT22;5177;50.068;8.156;2022-11-23T08:43:23;9.50;99.90
10263;DHT22;5177;50.068;8.156;2022-11-23T08:45:48;9.70;99.90
10263;DHT22;5177;50.068;8.156;2022-11-23T08:48:13;9.70;99.90
10263;DHT22;5177;50.068;8.156;2022-11-23T08:50:39;9.80;98.10
10263;DHT22;5177;50.068;8.156;2022-11-23T08:53:05;9.80;72.50
10263;DHT22;5177;50.068;8.156;2022-11-23T08:55:30;10.00;64.80
10263;DHT22;5177;50.068;8.156;2022-11-23T08:57:56;10.10;38.40
10263;DHT22;5177;50.068;8.156;2022-11-23T09:00:23;10.10;77.90
10263;DHT22;5177;50.068;8.156;2022-11-23T09:02:48;10.20;61.80
10263;DHT22;5177;50.068;8.156;2022-11-23T09:05:14;10.10;34.70
10263;DHT22;5177;50.068;8.156;2022-11-23T09:07:39;10.10;24.10
10263;DHT22;5177;50.068;8.156;2022-11-23T09:10:05;10.10;15.90
10263;DHT22;5177;50.068;8.156;2022-11-23T09:12:31;10.30;23.90
10263;DHT22;5177;50.068;8.156;2022-11-23T09:14:57;10.30;31.40
10263;DHT22;5177;50.068;8.156;2022-11-23T09:17:22;10.30;20.00
10263;DHT22;5177;50.068;8.156;2022-11-23T09:19:47;10.50;40.50
10263;DHT22;5177;50.068;8.156;2022-11-23T09:22:14;10.50;99.90
10263;DHT22;5177;50.068;8.156;2022-11-23T09:24:40;10.50;99.90
10263;DHT22;5177;50.068;8.156;2022-11-23T09:27:05;10.60;99.90
10263;DHT22;5177;50.068;8.156;2022-11-23T09:29:31;10.70;99.90
10263;DHT22;5177;50.068;8.156;2022-11-23T09:31:56;10.80;99.90
10263;DHT22;5177;50.068;8.156;2022-11-23T09:34:22;10.70;99.90
10263;DHT22;5177;50.068;8.156;2022-11-23T09:36:47;10.90;99.90
10263;DHT22;5177;50.068;8.156;2022-11-23T09:39:13;10.90;99.90
10263;DHT22;5177;50.068;8.156;2022-11-23T09:41:41;10.90;99.90
10263;DHT22;5177;50.068;8.156;2022-11-23T09:44:13;11.10;99.90
10263;DHT22;5177;50.068;8.156;2022-11-23T09:50:14;11.10;99.90
10263;DHT22;5177;50.068;8.156;2022-11-23T09:52:16;11.30;99.90
10263;DHT22;5177;50.068;8.156;2022-11-23T09:54:43;11.40;99.90
10263;DHT22;5177;50.068;8.156;2022-11-23T09:57:10;11.50;99.90
10263;DHT22;5177;50.068;8.156;2022-11-23T09:59:40;11.60;99.90
10263;DHT22;5177;50.068;8.156;2022-11-23T10:02:10;11.50;99.90
10263;DHT22;5177;50.068;8.156;2022-11-23T10:04:41;11.70;99.90
10263;DHT22;5177;50.068;8.156;2022-11-23T10:07:31;11.50;99.90
10263;DHT22;5177;50.068;8.156;2022-11-23T10:09:56;11.40;99.90
10263;DHT22;5177;50.068;8.156;2022-11-23T10:15:12;11.30;99.90
10263;DHT22;5177;50.068;8.156;2022-11-23T10:25:12;11.50;99.90
10263;DHT22;5177;50.068;8.156;2022-11-23T10:27:38;11.40;99.90
10263;DHT22;5177;50.068;8.156;2022-11-23T10:30:09;11.30;99.90
10263;DHT22;5177;50.068;8.156;2022-11-23T10:32:36;11.00;99.90
10263;DHT22;5177;50.068;8.156;2022-11-23T10:35:13;10.80;99.90
10263;DHT22;5177;50.068;8.156;2022-11-23T10:37:39;10.80;99.90
10263;DHT22;5177;50.068;8.156;2022-11-23T10:40:23;11.00;99.90
10263;DHT22;5177;50.068;8.156;2022-11-23T10:42:54;11.10;99.90
10263;DHT22;5177;50.068;8.156;2022-11-23T10:45:21;11.30;99.90
10263;DHT22;5177;50.068;8.156;2022-11-23T10:47:49;11.30;99.90
10263;DHT22;5177;50.068;8.156;2022-11-23T10:50:19;11.30;99.90
10263;DHT22;5177;50.068;8.156;2022-11-23T10:52:55;11.30;99.90
10263;DHT22;5177;50.068;8.156;2022-11-23T10:55:23;11.30;99.90
10263;DHT22;5177;50.068;8.156;2022-11-23T10:57:49;11.60;99.90
10263;DHT22;5177;50.068;8.156;2022-11-23T11:00:16;11.60;99.90
10263;DHT22;5177;50.068;8.156;2022-11-23T11:02:46;11.60;99.90
10263;DHT22;5177;50.068;8.156;2022-11-23T11:07:57;11.70;99.90
10263;DHT22;5177;50.068;8.156;2022-11-23T11:13:02;11.90;1.00
10263;DHT22;5177;50.068;8.156;2022-11-23T11:15:27;11.90;1.00
10263;DHT22;5177;50.068;8.156;2022-11-23T11:17:54;11.90;1.00
10263;DHT22;5177;50.068;8.156;2022-11-23T11:20:31;11.90;1.00
10263;DHT22;5177;50.068;8.156;2022-11-23T11:22:58;11.90;1.00
10263;DHT22;5177;50.068;8.156;2022-11-23T11:27:54;12.00;1.00
10263;DHT22;5177;50.068;8.156;2022-11-23T11:30:21;12.00;1.00
10263;DHT22;5177;50.068;8.156;2022-11-23T11:33:03;11.90;1.00
10263;DHT22;5177;50.068;8.156;2022-11-23T11:35:31;12.00;99.90
10263;DHT22;5177;50.068;8.156;2022-11-23T11:37:59;12.10;99.90
10263;DHT22;5177;50.068;8.156;2022-11-23T11:40:31;12.40;99.90
10263;DHT22;5177;50.068;8.156;2022-11-23T11:45:37;12.40;99.90
10263;DHT22;5177;50.068;8.156;2022-11-23T11:48:06;12.40;99.90
10263;DHT22;5177;50.068;8.156;2022-11-23T11:50:52;12.40;99.90
10263;DHT22;5177;50.068;8.156;2022-11-23T11:53:23;12.50;99.90
10263;DHT22;5177;50.068;8.156;2022-11-23T11:55:56;12.40;99.90
10263;DHT22;5177;50.068;8.156;2022-11-23T11:58:23;12.40;99.90
10263;DHT22;5177;50.068;8.156;2022-11-23T12:00:49;12.40;99.90
10263;DHT22;5177;50.068;8.156;2022-11-23T12:05:48;12.60;99.90
10263;DHT22;5177;50.068;8.156;2022-11-23T12:08:20;12.60;99.90
10263;DHT22;5177;50.068;8.156;2022-11-23T12:11:04;12.70;99.90
10263;DHT22;5177;50.068;8.156;2022-11-23T12:13:32;12.60;99.90
10263;DHT22;5177;50.068;8.156;2022-11-23T12:21:11;12.60;99.90
10263;DHT22;5177;50.068;8.156;2022-11-23T12:23:53;12.70;99.90
10263;DHT22;5177;50.068;8.156;2022-11-23T12:26:27;12.50;99.90
10263;DHT22;5177;50.068;8.156;2022-11-23T12:29:04;12.60;99.90
10263;DHT22;5177;50.068;8.156;2022-11-23T12:31:46;12.60;99.90
10263;DHT22;5177;50.068;8.156;2022-11-23T12:34:16;12.60;99.90
10263;DHT22;5177;50.068;8.156;2022-11-23T12:39:26;12.50;99.90
10263;DHT22;5177;50.068;8.156;2022-11-23T12:42:04;12.40;99.90
10263;DHT22;5177;50.068;8.156;2022-11-23T12:49:32;12.10;99.90
10263;DHT22;5177;50.068;8.156;2022-11-23T12:54:48;12.00;99.90
10263;DHT22;5177;50.068;8.156;2022-11-23T12:57:33;11.90;99.90
10263;DHT22;5177;50.068;8.156;2022-11-23T13:00:03;12.00;99.90
10263;DHT22;5177;50.068;8.156;2022-11-23T13:02:38;12.20;99.90
10263;DHT22;5177;50.068;8.156;2022-11-23T13:10:30;12.00;99.90
10263;DHT22;5177;50.068;8.156;2022-11-23T13:13:05;11.90;99.90
10263;DHT22;5177;50.068;8.156;2022-11-23T13:15:41;11.80;99.90
10263;DHT22;5177;50.068;8.156;2022-11-23T13:20:58;12.00;99.90
10263;DHT22;5177;50.068;8.156;2022-11-23T13:23:27;12.00;99.90
10263;DHT22;5177;50.068;8.156;2022-11-23T13:26:10;12.00;99.90
10263;DHT22;5177;50.068;8.156;2022-11-23T13:28:36;12.10;99.90
10263;DHT22;5177;50.068;8.156;2022-11-23T13:33:39;12.20;99.90
10263;DHT22;5177;50.068;8.156;2022-11-23T13:36:08;12.20;99.90
10263;DHT22;5177;50.068;8.156;2022-11-23T13:38:35;12.20;99.90
10263;DHT22;5177;50.068;8.156;2022-11-23T13:41:01;12.20;99.90
10263;DHT22;5177;50.068;8.156;2022-11-23T13:43:30;12.10;99.90
10263;DHT22;5177;50.068;8.156;2022-11-23T13:48:55;12.10;99.90
10263;DHT22;5177;50.068;8.156;2022-11-23T13:53:59;12.00;99.90
10263;DHT22;5177;50.068;8.156;2022-11-23T13:56:31;12.00;99.90
10263;DHT22;5177;50.068;8.156;2022-11-23T13:58:58;12.00;99.90
10263;DHT22;5177;50.068;8.156;2022-11-23T14:04:24;11.80;99.90
10263;DHT22;5177;50.068;8.156;2022-11-23T14:06:51;11.80;99.90
10263;DHT22;5177;50.068;8.156;2022-11-23T14:09:29;11.70;99.90
10263;DHT22;5177;50.068;8.156;2022-11-23T14:12:02;11.60;99.90
10263;DHT22;5177;50.068;8.156;2022-11-23T14:14:33;11.50;99.90
10263;DHT22;5177;50.068;8.156;2022-11-23T14:17:22;11.40;99.90
10263;DHT22;5177;50.068;8.156;2022-11-23T14:20:09;11.30;99.90
10263;DHT22;5177;50.068;8.156;2022-11-23T14:30:33;10.70;99.90
10263;DHT22;5177;50.068;8.156;2022-11-23T14:33:12;10.70;99.90
10263;DHT22;5177;50.068;8.156;2022-11-23T14:35:44;10.50;99.90
10263;DHT22;5177;50.068;8.156;2022-11-23T14:43:26;10.40;99.90
10263;DHT22;5177;50.068;8.156;2022-11-23T14:45:58;10.30;1.00
10263;DHT22;5177;50.068;8.156;2022-11-23T14:48:26;10.30;1.00
10263;DHT22;5177;50.068;8.156;2022-11-23T14:50:53;10.20;1.00
10263;DHT22;5177;50.068;8.156;2022-11-23T14:53:18;10.10;64.70
10263;DHT22;5177;50.068;8.156;2022-11-23T14:55:44;10.20;99.90
10263;DHT22;5177;50.068;8.156;2022-11-23T14:58:11;10.20;99.90
10263;DHT22;5177;50.068;8.156;2022-11-23T15:00:40;10.10;99.90
10263;DHT22;5177;50.068;8.156;2022-11-23T15:03:07;10.00;99.90
10263;DHT22;5177;50.068;8.156;2022-11-23T15:05:33;9.90;99.90
10263;DHT22;5177;50.068;8.156;2022-11-23T15:08:10;9.90;99.90
10263;DHT22;5177;50.068;8.156;2022-11-23T15:10:59;9.90;99.90
10263;DHT22;5177;50.068;8.156;2022-11-23T15:13:27;9.80;99.90
10263;DHT22;5177;50.068;8.156;2022-11-23T15:15:53;9.80;99.90
10263;DHT22;5177;50.068;8.156;2022-11-23T15:18:29;9.70;99.90
10263;DHT22;5177;50.068;8.156;2022-11-23T15:20:56;9.80;99.90
10263;DHT22;5177;50.068;8.156;2022-11-23T15:23:23;9.90;99.90
10263;DHT22;5177;50.068;8.156;2022-11-23T15:25:52;9.80;99.90
10263;DHT22;5177;50.068;8.156;2022-11-23T15:28:20;9.70;1.00
10263;DHT22;5177;50.068;8.156;2022-11-23T15:30:49;9.70;1.00
10263;DHT22;5177;50.068;8.156;2022-11-23T15:33:14;9.70;1.00
10263;DHT22;5177;50.068;8.156;2022-11-23T15:35:42;9.70;1.00
10263;DHT22;5177;50.068;8.156;2022-11-23T15:38:12;9.60;1.00
10263;DHT22;5177;50.068;8.156;2022-11-23T15:40:39;9.60;1.00
10263;DHT22;5177;50.068;8.156;2022-11-23T15:43:09;9.60;1.00
10263;DHT22;5177;50.068;8.156;2022-11-23T15:51:17;9.80;1.00
10263;DHT22;5177;50.068;8.156;2022-11-23T15:53:51;9.70;1.00
10263;DHT22;5177;50.068;8.156;2022-11-23T15:56:25;9.70;99.90
10263;DHT22;5177;50.068;8.156;2022-11-23T15:58:52;9.60;99.90
10263;DHT22;5177;50.068;8.156;2022-11-23T16:01:17;9.60;99.90
10263;DHT22;5177;50.068;8.156;2022-11-23T16:06:17;9.60;99.90
10263;DHT22;5177;50.068;8.156;2022-11-23T16:08:43;9.60;99.90
10263;DHT22;5177;50.068;8.156;2022-11-23T16:11:19;9.60;99.90
10263;DHT22;5177;50.068;8.156;2022-11-23T16:13:45;9.60;99.90
10263;DHT22;5177;50.068;8.156;2022-11-23T16:16:14;9.50;99.90
10263;DHT22;5177;50.068;8.156;2022-11-23T16:18:42;9.50;99.90
10263;DHT22;5177;50.068;8.156;2022-11-23T16:21:11;9.60;99.90
10263;DHT22;5177;50.068;8.156;2022-11-23T16:23:41;9.60;99.90
10263;DHT22;5177;50.068;8.156;2022-11-23T16:26:11;9.60;99.90
10263;DHT22;5177;50.068;8.156;2022-11-23T16:28:37;9.60;99.90
10263;DHT22;5177;50.068;8.156;2022-11-23T16:31:05;9.50;99.90
10263;DHT22;5177;50.068;8.156;2022-11-23T16:33:48;9.50;99.90
10263;DHT22;5177;50.068;8.156;2022-11-23T16:36:14;9.40;99.90
10263;DHT22;5177;50.068;8.156;2022-11-23T16:38:39;9.50;99.90
10263;DHT22;5177;50.068;8.156;2022-11-23T16:41:05;9.50;99.90
10263;DHT22;5177;50.068;8.156;2022-11-23T16:43:30;9.50;99.90
10263;DHT22;5177;50.068;8.156;2022-11-23T16:45:56;9.50;99.90
10263;DHT22;5177;50.068;8.156;2022-11-23T16:48:42;9.50;99.90
10263;DHT22;5177;50.068;8.156;2022-11-23T16:51:08;9.50;99.90
10263;DHT22;5177;50.068;8.156;2022-11-23T16:53:35;9.50;99.90
10263;DHT22;5177;50.068;8.156;2022-11-23T16:56:01;9.40;99.90
10263;DHT22;5177;50.068;8.156;2022-11-23T16:58:31;9.40;99.90
10263;DHT22;5177;50.068;8.156;2022-11-23T17:00:59;9.50;99.90
10263;DHT22;5177;50.068;8.156;2022-11-23T17:03:25;9.50;99.90
10263;DHT22;5177;50.068;8.156;2022-11-23T17:05:50;9.50;99.90
10263;DHT22;5177;50.068;8.156;2022-11-23T17:08:16;9.30;99.90
10263;DHT22;5177;50.068;8.156;2022-11-23T17:10:41;9.30;99.90
10263;DHT22;5177;50.068;8.156;2022-11-23T17:13:10;9.20;99.90
10263;DHT22;5177;50.068;8.156;2022-11-23T17:15:36;9.20;99.90
10263;DHT22;5177;50.068;8.156;2022-11-23T17:18:02;9.10;99.90
10263;DHT22;5177;50.068;8.156;2022-11-23T17:20:28;9.10;99.90
10263;DHT22;5177;50.068;8.156;2022-11-23T17:22:53;9.00;99.90
10263;DHT22;5177;50.068;8.156;2022-11-23T17:25:26;8.90;99.90
10263;DHT22;5177;50.068;8.156;2022-11-23T17:27:51;8.90;99.90
10263;DHT22;5177;50.068;8.156;2022-11-23T17:30:18;8.80;99.90
10263;DHT22;5177;50.068;8.156;2022-11-23T17:32:46;8.80;99.90
10263;DHT22;5177;50.068;8.156;2022-11-23T17:35:12;8.70;99.90
10263;DHT22;5177;50.068;8.156;2022-11-23T17:37:37;8.70;99.90
10263;DHT22;5177;50.068;8.156;2022-11-23T17:40:03;8.60;99.90